Latest Weather Observations for Centre Island

IDD60801

Issued at 1:35 pm CST Saturday 1 November 2014 (issued every 30 minutes, with the page automatically refreshed every 10 minutes)

About weather observations | Map of weather stations | Latest weather observations for NT | Other Formats
Station Details ID: 014703 Name: CENTRE ISLAND Lat: -15.74 Lon: 136.82 Height: 12.2 m
Data from the previous 72 hours. | See also: Recent months at Centre Island
Date/Time
CST
Temp
°C
App
Temp
°C
Dew
Point
Rel
Hum
%
Delta-T
°C
Wind Press
QNH
hPa
Press
MSL
hPa
Rain
since 9 am
mm
Dir
 
Spd
km/h
Gust
km/h
Spd
kts
Gust
kts
01/01:30pm 32.3 33.6 22.4 56 6.8 NNE 19 28 10 15 1010.5 1010.4 0.0
01/01:00pm 33.0 33.0 20.2 47 8.5 N 20 28 11 15 1010.9 1010.8 0.0
01/12:30pm 32.7 32.8 19.9 46 8.5 N 19 28 10 15 1011.2 1011.1 0.0
01/12:00pm 32.6 32.6 20.2 48 8.2 N 20 30 11 16 1011.7 1011.6 0.0
01/11:30am 33.0 32.0 18.0 41 9.7 N 20 32 11 17 1012.2 1012.1 0.0
01/11:00am 33.2 33.3 20.0 45 8.8 N 19 26 10 14 1012.4 1012.3 0.0
01/10:30am 32.0 32.8 21.8 54 6.9 N 20 28 11 15 1012.5 1012.4 0.0
01/10:00am 31.8 33.9 23.1 60 6.0 N 17 24 9 13 1012.5 1012.4 0.0
01/09:30am 31.1 32.7 22.1 58 6.1 N 17 24 9 13 1012.6 1012.5 0.0
01/09:00am 30.8 32.7 22.7 62 5.5 N 17 22 9 12 1012.5 1012.4 0.0
01/08:30am 30.3 32.2 22.7 64 5.2 N 17 22 9 12 1012.1 1012.0 0.0
01/08:00am 29.1 31.3 23.3 71 4.0 N 17 22 9 12 1011.9 1011.8 0.0
01/07:30am 28.5 30.8 23.4 74 3.5 N 17 22 9 12 1011.3 1011.2 0.0
01/07:00am 27.6 30.5 23.2 77 3.0 N 13 17 7 9 1010.9 1010.8 0.0
01/06:30am 26.5 29.4 23.2 82 2.2 N 13 19 7 10 1010.6 1010.5 0.0
01/06:00am 25.5 28.7 23.0 86 1.7 NNW 11 15 6 8 1010.3 1010.2 0.0
01/05:30am 25.4 28.9 22.9 86 1.7 NNW 9 13 5 7 1010.0 1009.9 0.0
01/05:00am 25.5 28.6 22.8 85 1.8 N 11 13 6 7 1009.8 1009.7 0.0
01/04:30am 25.7 28.5 23.0 85 1.8 N 13 17 7 9 1009.5 1009.4 0.0
01/04:00am 25.8 28.8 23.3 86 1.7 N 13 20 7 11 1009.2 1009.1 0.0
01/03:30am 25.4 28.9 22.9 86 1.7 N 9 11 5 6 1009.1 1009.0 0.0
01/03:00am 25.9 28.6 22.8 83 2.1 N 13 17 7 9 1009.0 1008.9 0.0
01/02:30am 26.2 29.1 23.1 83 2.1 N 13 19 7 10 1009.1 1009.0 0.0
01/02:00am 26.4 28.8 22.9 81 2.4 N 15 20 8 11 1009.3 1009.2 0.0
01/01:30am 26.5 28.9 23.0 81 2.4 N 15 20 8 11 1009.5 1009.4 0.0
01/01:00am 26.6 29.0 22.9 80 2.5 N 15 20 8 11 1009.7 1009.6 0.0
01/12:30am 26.9 29.2 23.4 81 2.4 NNE 17 22 9 12 1009.9 1009.8 0.0
01/12:00am 26.8 29.4 23.3 81 2.4 N 15 20 8 11 1010.2 1010.1 0.0
 
Date/Time
CST
Temp
°C
App
Temp
°C
Dew
Point
Rel
Hum
%
Delta-T
°C
Wind Press
QNH
hPa
Press
MSL
hPa
Rain
since 9 am
mm
Dir
 
Spd
km/h
Gust
km/h
Spd
kts
Gust
kts
31/11:30pm 26.9 29.6 22.9 79 2.7 NNE 13 17 7 9 1010.4 1010.3 0.0
31/11:00pm 27.0 29.8 23.0 79 2.7 NNE 13 17 7 9 1010.5 1010.4 0.0
31/10:30pm 26.9 29.9 22.7 78 2.8 NNE 11 15 6 8 1010.6 1010.5 0.0
31/10:00pm 27.1 29.7 22.7 77 3.0 NNE 13 17 7 9 1010.6 1010.5 0.0
31/09:30pm 27.3 29.6 22.7 76 3.1 NNE 15 19 8 10 1010.5 1010.4 0.0
31/09:00pm 27.2 30.2 22.6 76 3.1 NNE 11 17 6 9 1010.2 1010.1 0.0
31/08:30pm 27.3 30.2 22.5 75 3.2 NNE 11 15 6 8 1009.9 1009.8 0.0
31/08:00pm 27.4 30.0 22.6 75 3.2 NNE 13 17 7 9 1009.6 1009.5 0.0
31/07:30pm 27.6 29.5 22.1 72 3.7 NNE 15 20 8 11 1009.5 1009.4 0.0
31/07:00pm 27.9 30.1 22.6 73 3.6 NNE 15 20 8 11 1009.2 1009.1 0.0
31/06:30pm 28.0 29.6 22.2 70 3.9 NE 17 20 9 11 1008.9 1008.8 0.0
31/06:00pm 29.1 30.9 21.1 62 5.3 N 13 20 7 11 1008.8 1008.7 0.0
31/05:30pm 29.9 31.1 20.7 57 6.1 N 15 20 8 11 1008.7 1008.6 0.0
31/05:00pm 30.5 31.9 21.0 57 6.3 N 15 20 8 11 1008.6 1008.5 0.0
31/04:30pm 31.2 33.0 21.9 57 6.3 N 15 22 8 12 1008.5 1008.4 0.0
31/04:00pm 31.2 32.8 21.4 56 6.6 N 15 22 8 12 1008.5 1008.4 0.0
31/03:30pm 32.4 34.2 21.9 54 7.1 N 15 20 8 11 1008.7 1008.6 0.0
31/03:00pm 31.4 32.8 21.8 56 6.5 N 17 20 9 11 1008.9 1008.8 0.0
31/02:30pm 31.5 32.7 22.5 59 6.2 NE 20 24 11 13 1009.0 1008.9 0.0
31/02:00pm 31.6 32.7 22.0 56 6.5 NE 19 28 10 15 1009.3 1009.2 0.0
31/01:30pm 32.4 34.0 22.2 55 7.0 N 17 24 9 13 1009.5 1009.4 0.0
31/01:00pm 32.6 34.5 22.7 56 6.8 N 17 28 9 15 1009.9 1009.8 0.0
31/12:30pm 32.4 34.0 22.2 55 7.0 N 17 28 9 15 1010.3 1010.2 0.0
31/12:00pm 32.5 33.1 21.4 52 7.5 N 20 30 11 16 1010.8 1010.7 0.0
31/11:30am 32.3 31.8 19.9 48 8.2 N 22 32 12 17 1011.4 1011.3 0.0
31/11:00am 33.0 32.2 18.4 42 9.5 N 20 30 11 16 1011.8 1011.7 0.0
31/10:30am 31.5 31.9 22.5 59 6.1 NE 24 30 13 16 1012.0 1011.9 0.0
31/10:00am 31.1 31.9 23.2 63 5.4 NE 24 30 13 16 1012.1 1012.0 0.0
31/09:30am 31.5 32.9 21.9 56 6.5 N 17 24 9 13 1012.2 1012.1 0.0
31/09:00am 31.7 33.3 22.1 56 6.5 N 17 22 9 12 1012.1 1012.0 0.0
31/08:30am 30.4 32.3 22.8 64 5.2 N 17 20 9 11 1011.8 1011.7 0.0
31/08:00am 29.5 32.4 23.2 69 4.3 N 13 17 7 9 1011.6 1011.5 0.0
31/07:30am 28.7 32.3 23.8 75 3.4 N 11 15 6 8 1011.2 1011.1 0.0
31/07:00am 27.4 31.5 24.0 82 2.3 N 9 13 5 7 1010.7 1010.6 0.0
31/06:30am 26.1 30.3 24.1 89 1.4 N 9 13 5 7 1010.2 1010.1 0.0
31/06:00am 25.4 29.3 23.6 90 1.2 NNW 9 11 5 6 1009.7 1009.6 0.0
31/05:30am 25.4 29.7 23.6 90 1.2 N 7 11 4 6 1009.3 1009.2 0.0
31/05:00am 25.3 29.5 23.5 90 1.2 NNW 7 9 4 5 1008.7 1008.6 0.0
31/04:30am 25.4 29.2 23.5 89 1.3 NNW 9 13 5 7 1008.3 1008.2 0.0
31/04:00am 25.5 29.0 23.6 89 1.3 NNW 11 13 6 7 1007.9 1007.8 0.0
31/03:30am 25.6 29.5 23.6 89 1.4 NNW 9 11 5 6 1007.6 1007.5 0.0
31/03:00am 25.8 29.4 23.7 88 1.4 NNW 11 17 6 9 1007.5 1007.4 0.0
31/02:30am 25.9 29.4 23.6 87 1.6 N 11 15 6 8 1007.7 1007.6 0.0
31/02:00am 26.0 29.5 23.5 86 1.7 N 11 17 6 9 1007.9 1007.8 0.0
31/01:30am 26.1 29.8 23.2 84 2.0 N 9 13 5 7 1008.1 1008.0 0.0
31/01:00am 26.4 29.8 23.3 83 2.1 N 11 17 6 9 1008.4 1008.3 0.0
31/12:30am 26.9 29.7 23.6 82 2.3 N 15 20 8 11 1008.8 1008.7 0.0
31/12:00am 26.9 29.6 23.4 81 2.4 N 15 22 8 12 1009.1 1009.0 0.0
 
Date/Time
CST
Temp
°C
App
Temp
°C
Dew
Point
Rel
Hum
%
Delta-T
°C
Wind Press
QNH
hPa
Press
MSL
hPa
Rain
since 9 am
mm
Dir
 
Spd
km/h
Gust
km/h
Spd
kts
Gust
kts
30/11:30pm 27.0 28.8 23.3 80 2.5 N 19 24 10 13 1009.5 1009.4 0.0
30/11:00pm 27.1 28.7 23.3 80 2.6 N 20 28 11 15 1009.7 1009.6 0.0
30/10:30pm 27.2 29.0 23.2 79 2.7 N 19 26 10 14 1009.8 1009.7 0.0
30/10:00pm 27.3 29.0 23.1 78 2.9 N 19 24 10 13 1009.6 1009.5 0.0
30/09:30pm 27.3 29.3 22.9 77 3.0 N 17 20 9 11 1009.6 1009.5 0.0
30/09:00pm 27.5 29.4 22.7 75 3.3 N 17 24 9 13 1009.6 1009.5 0.0
30/08:30pm 27.6 29.5 22.8 75 3.3 N 17 22 9 12 1009.5 1009.4 0.0
30/08:00pm 27.8 29.4 22.1 71 3.8 N 17 22 9 12 1009.3 1009.2 0.0
30/07:30pm 28.0 29.0 21.8 69 4.2 NNE 19 24 10 13 1009.0 1008.9 0.0
30/07:00pm 28.2 28.2 20.2 62 5.3 N 20 24 11 13 1008.9 1008.8 0.0
30/06:30pm 28.3 28.1 20.6 63 5.1 NNE 22 30 12 16 1008.7 1008.6 0.0
30/06:00pm 28.6 29.5 21.9 67 4.5 NNE 20 28 11 15 1008.6 1008.5 0.0
30/05:30pm 29.3 29.7 22.5 67 4.6 NNE 24 30 13 16 1008.4 1008.3 0.0
30/05:00pm 29.7 30.4 22.9 67 4.6 NE 24 30 13 16 1008.2 1008.1 0.0
30/04:30pm 30.0 30.3 22.2 63 5.3 NE 24 32 13 17 1008.2 1008.1 0.0
30/04:00pm 30.7 30.6 21.5 58 6.2 NE 24 32 13 17 1008.2 1008.1 0.0
30/03:30pm 31.0 30.4 21.2 56 6.6 NE 26 32 14 17 1008.3 1008.2 0.0
30/03:00pm 31.5 31.4 22.2 57 6.3 NE 26 32 14 17 1008.6 1008.5 0.0
30/02:30pm 31.7 31.5 22.1 56 6.5 NE 26 32 14 17 1008.7 1008.6 0.0
30/02:00pm 31.6 31.5 22.3 57 6.3 NE 26 32 14 17 1009.0 1008.9 0.0
30/01:30pm 32.1 32.6 23.3 59 6.1 NE 26 33 14 18 1009.2 1009.1 0.0
30/01:00pm 32.0 32.8 23.8 62 5.7 NE 26 32 14 17 1009.6 1009.5 0.0
30/12:30pm 31.8 32.9 23.6 62 5.7 NE 24 32 13 17 1010.0 1009.9 0.0
30/12:00pm 32.7 34.7 23.6 58 6.3 NE 19 26 10 14 1010.5 1010.4 0.0
30/11:30am 30.9 34.3 24.1 67 4.7 NE 13 17 7 9 1010.8 1010.7 0.0
30/11:00am 31.3 34.8 24.2 66 5.0 ESE 13 15 7 8 1011.1 1011.0 0.0
30/10:30am 30.0 32.9 23.2 67 4.7 ESE 13 15 7 8 1011.4 1011.3 0.0
30/10:00am 29.3 32.6 22.5 67 4.6 SE 9 13 5 7 1011.5 1011.4 0.0
30/09:30am 29.3 32.8 22.8 68 4.4 SSE 9 11 5 6 1011.8 1011.7 0.0
30/09:00am 29.1 32.9 22.8 69 4.3 SE 7 9 4 5 1011.9 1011.8 0.0
30/08:30am 28.8 32.9 23.0 71 4.0 SSE 6 9 3 5 1011.8 1011.7 0.0
30/08:00am 28.0 31.1 22.9 74 3.5 S 11 13 6 7 1011.7 1011.6 0.0
30/07:30am 28.0 31.6 23.1 74 3.3 WSW 9 11 5 6 1011.5 1011.4 0.0
30/07:00am 27.4 30.6 23.0 77 3.0 WSW 11 15 6 8 1011.2 1011.1 0.0
30/06:30am 26.8 29.7 23.1 80 2.5 W 13 15 7 8 1010.7 1010.6 0.0
30/06:00am 25.8 29.5 23.3 86 1.7 WSW 9 13 5 7 1010.4 1010.3 0.0
30/05:30am 25.2 28.5 22.5 85 1.8 WNW 9 13 5 7 1009.8 1009.7 0.0
30/05:00am 25.0 28.0 21.9 83 2.1 NW 9 11 5 6 1009.5 1009.4 0.0
30/04:30am 25.1 28.1 22.0 83 2.1 NW 9 11 5 6 1009.4 1009.3 0.0
30/04:00am 25.1 28.2 22.2 84 1.9 NW 9 13 5 7 1009.3 1009.2 0.0
30/03:30am 25.3 28.5 22.4 84 1.9 NW 9 11 5 6 1009.4 1009.3 0.0
30/03:00am 25.5 28.8 22.6 84 2.0 NW 9 13 5 7 1009.4 1009.3 0.0
30/02:30am 25.9 29.6 23.2 85 1.8 NW 9 15 5 8 1009.5 1009.4 0.0
30/02:00am 26.0 29.5 23.5 86 1.7 NNW 11 17 6 9 1009.4 1009.3 0.0
30/01:30am 26.2 28.9 23.5 85 1.8 N 15 19 8 10 1009.6 1009.5 0.0
30/01:00am 26.4 29.1 23.5 84 2.0 N 15 20 8 11 1010.0 1009.9 0.0
30/12:30am 26.5 29.4 23.8 85 1.9 N 15 17 8 9 1010.3 1010.2 0.0
30/12:00am 26.6 29.8 23.7 84 2.0 N 13 17 7 9 1010.7 1010.6 0.0
 
Date/Time
CST
Temp
°C
App
Temp
°C
Dew
Point
Rel
Hum
%
Delta-T
°C
Wind Press
QNH
hPa
Press
MSL
hPa
Rain
since 9 am
mm
Dir
 
Spd
km/h
Gust
km/h
Spd
kts
Gust
kts
29/11:30pm 26.6 30.1 23.5 83 2.1 N 11 17 6 9 1011.0 1010.9 0.0
29/11:00pm 26.6 30.4 23.5 83 2.1 N 9 13 5 7 1011.3 1011.2 0.0
29/10:30pm 26.8 30.2 23.3 81 2.4 NNW 11 15 6 8 1011.3 1011.2 0.0
29/10:00pm 27.2 29.5 23.4 80 2.6 N 17 20 9 11 1011.1 1011.0 0.0
29/09:30pm 27.2 29.5 23.4 80 2.6 N 17 24 9 13 1010.9 1010.8 0.0
29/09:00pm 27.4 29.8 23.6 80 2.6 N 17 24 9 13 1010.6 1010.5 0.0
29/08:30pm 27.5 28.8 23.3 78 2.9 N 22 28 12 15 1010.4 1010.3 0.0
29/08:00pm 27.7 29.3 23.3 77 3.0 N 20 28 11 15 1010.3 1010.2 0.0
29/07:30pm 27.7 29.0 23.3 77 3.0 N 22 28 12 15 1010.0 1009.9 0.0
29/07:00pm 27.9 29.7 23.5 77 3.0 NNE 20 30 11 16 1009.9 1009.8 0.0
29/06:30pm 28.2 29.6 23.6 76 3.2 NNE 22 30 12 16 1009.8 1009.7 0.0
29/06:00pm 28.8 29.6 23.2 71 3.8 NNE 24 32 13 17 1009.5 1009.4 0.0
29/05:30pm 29.2 29.5 23.6 72 3.9 NNE 28 33 15 18 1009.2 1009.1 0.0
29/05:00pm 29.9 30.6 23.6 69 4.3 NNE 26 35 14 19 1009.1 1009.0 0.0
29/04:30pm 30.2 29.9 22.6 63 5.2 NNE 28 35 15 19 1009.1 1009.0 0.0
29/04:00pm 30.8 31.2 22.4 61 5.7 NNE 24 33 13 18 1009.1 1009.0 0.0
29/03:30pm 31.3 31.1 22.0 57 6.3 NNE 26 35 14 19 1009.3 1009.2 0.0
29/03:00pm 32.0 31.5 21.5 53 7.1 NNE 26 33 14 18 1009.4 1009.3 0.0
29/02:30pm 32.7 32.6 21.5 51 7.6 NE 24 32 13 17 1009.8 1009.7 0.0
29/02:00pm 32.7 33.0 21.5 51 7.6 NNE 22 30 12 16 1010.2 1010.1 0.0

Other Formats:

Comma delimited format used in spreadsheet applications
http://www.bom.gov.au/fwo/IDD60801/IDD60801.94248.axf

JavaScript Object Notation format (JSON) in row-major order
http://www.bom.gov.au/fwo/IDD60801/IDD60801.94248.json